sensor_id;sensor_type;location;lat;lon;timestamp;pressure;altitude;pressure_sealevel;temperature;humidity
49030;BME280;43337;52.070;4.508;2023-05-08T00:01:50;102216.50;;;12.81;100.00
49030;BME280;43337;52.070;4.508;2023-05-08T00:04:19;102209.47;;;12.80;100.00
49030;BME280;43337;52.070;4.508;2023-05-08T00:06:45;102196.50;;;12.73;100.00
49030;BME280;43337;52.070;4.508;2023-05-08T00:09:20;102184.59;;;12.58;100.00
49030;BME280;43337;52.070;4.508;2023-05-08T00:11:45;102238.56;;;12.80;100.00
49030;BME280;43337;52.070;4.508;2023-05-08T00:14:11;102219.44;;;12.70;100.00
49030;BME280;43337;52.070;4.508;2023-05-08T00:16:36;102186.41;;;12.56;100.00
49030;BME280;43337;52.070;4.508;2023-05-08T00:19:02;102234.28;;;12.76;100.00
49030;BME280;43337;52.070;4.508;2023-05-08T00:21:28;102177.13;;;12.42;100.00
49030;BME280;43337;52.070;4.508;2023-05-08T00:23:53;102215.31;;;12.60;100.00
49030;BME280;43337;52.070;4.508;2023-05-08T00:26:19;102231.88;;;12.67;100.00
49030;BME280;43337;52.070;4.508;2023-05-08T00:28:46;102242.50;;;12.65;100.00
49030;BME280;43337;52.070;4.508;2023-05-08T00:31:11;102220.66;;;12.59;100.00
49030;BME280;43337;52.070;4.508;2023-05-08T00:33:38;102215.59;;;12.51;100.00
49030;BME280;43337;52.070;4.508;2023-05-08T00:36:04;102193.13;;;12.36;100.00
49030;BME280;43337;52.070;4.508;2023-05-08T00:38:32;102215.88;;;12.42;100.00
49030;BME280;43337;52.070;4.508;2023-05-08T00:40:59;102221.03;;;12.45;100.00
49030;BME280;43337;52.070;4.508;2023-05-08T00:43:26;102195.16;;;12.27;100.00
49030;BME280;43337;52.070;4.508;2023-05-08T00:45:58;102224.81;;;12.36;100.00
49030;BME280;43337;52.070;4.508;2023-05-08T00:48:30;102240.38;;;12.47;100.00
49030;BME280;43337;52.070;4.508;2023-05-08T00:50:57;102225.66;;;12.38;100.00
49030;BME280;43337;52.070;4.508;2023-05-08T00:53:24;102232.72;;;12.38;100.00
49030;BME280;43337;52.070;4.508;2023-05-08T00:55:52;102205.03;;;12.20;100.00
49030;BME280;43337;52.070;4.508;2023-05-08T00:58:20;102221.47;;;12.30;100.00
49030;BME280;43337;52.070;4.508;2023-05-08T01:00:46;102233.72;;;12.34;100.00
49030;BME280;43337;52.070;4.508;2023-05-08T01:03:14;102197.53;;;12.05;100.00
49030;BME280;43337;52.070;4.508;2023-05-08T01:05:40;102214.03;;;12.13;100.00
49030;BME280;43337;52.070;4.508;2023-05-08T01:08:06;102222.66;;;12.18;100.00
49030;BME280;43337;52.070;4.508;2023-05-08T01:11:09;102241.88;;;12.25;100.00
49030;BME280;43337;52.070;4.508;2023-05-08T01:25:14;102239.63;;;12.09;100.00
49030;BME280;43337;52.070;4.508;2023-05-08T01:33:19;102201.66;;;11.81;100.00
49030;BME280;43337;52.070;4.508;2023-05-08T01:35:51;102237.38;;;11.95;100.00
49030;BME280;43337;52.070;4.508;2023-05-08T01:38:32;102220.13;;;11.81;100.00
49030;BME280;43337;52.070;4.508;2023-05-08T01:41:09;102238.38;;;11.90;100.00
49030;BME280;43337;52.070;4.508;2023-05-08T01:43:47;102225.53;;;11.74;100.00
49030;BME280;43337;52.070;4.508;2023-05-08T01:46:33;102197.88;;;11.55;100.00
49030;BME280;43337;52.070;4.508;2023-05-08T01:49:04;102208.19;;;11.64;100.00
49030;BME280;43337;52.070;4.508;2023-05-08T01:51:55;102227.50;;;11.66;100.00
49030;BME280;43337;52.070;4.508;2023-05-08T01:54:25;102247.44;;;11.78;100.00
49030;BME280;43337;52.070;4.508;2023-05-08T01:56:54;102256.25;;;11.77;100.00
49030;BME280;43337;52.070;4.508;2023-05-08T01:59:22;102257.19;;;11.76;100.00
49030;BME280;43337;52.070;4.508;2023-05-08T02:01:51;102249.25;;;11.76;100.00
49030;BME280;43337;52.070;4.508;2023-05-08T02:04:21;102243.22;;;11.71;100.00
49030;BME280;43337;52.070;4.508;2023-05-08T02:06:49;102227.81;;;11.54;100.00
49030;BME280;43337;52.070;4.508;2023-05-08T02:09:15;102207.88;;;11.42;100.00
49030;BME280;43337;52.070;4.508;2023-05-08T02:11:42;102249.53;;;11.64;100.00
49030;BME280;43337;52.070;4.508;2023-05-08T02:14:10;102214.00;;;11.43;100.00
49030;BME280;43337;52.070;4.508;2023-05-08T02:16:39;102244.44;;;11.58;100.00
49030;BME280;43337;52.070;4.508;2023-05-08T02:19:07;102244.44;;;11.56;100.00
49030;BME280;43337;52.070;4.508;2023-05-08T02:21:37;102260.28;;;11.56;100.00
49030;BME280;43337;52.070;4.508;2023-05-08T02:24:15;102239.41;;;11.47;100.00
49030;BME280;43337;52.070;4.508;2023-05-08T02:26:43;102236.75;;;11.47;100.00
49030;BME280;43337;52.070;4.508;2023-05-08T02:29:11;102251.63;;;11.51;100.00
49030;BME280;43337;52.070;4.508;2023-05-08T02:31:47;102243.75;;;11.49;100.00
49030;BME280;43337;52.070;4.508;2023-05-08T02:34:14;102247.25;;;11.50;100.00
49030;BME280;43337;52.070;4.508;2023-05-08T02:36:42;102251.56;;;11.53;100.00
49030;BME280;43337;52.070;4.508;2023-05-08T02:39:10;102255.19;;;11.48;100.00
49030;BME280;43337;52.070;4.508;2023-05-08T02:41:39;102229.97;;;11.37;100.00
49030;BME280;43337;52.070;4.508;2023-05-08T02:44:05;102250.94;;;11.41;100.00
49030;BME280;43337;52.070;4.508;2023-05-08T02:46:48;102234.50;;;11.32;100.00
49030;BME280;43337;52.070;4.508;2023-05-08T02:49:49;102253.50;;;11.44;100.00
49030;BME280;43337;52.070;4.508;2023-05-08T02:52:22;102250.94;;;11.43;100.00
49030;BME280;43337;52.070;4.508;2023-05-08T02:55:05;102238.91;;;11.31;100.00
49030;BME280;43337;52.070;4.508;2023-05-08T02:57:40;102266.81;;;11.40;100.00
49030;BME280;43337;52.070;4.508;2023-05-08T03:00:17;102227.72;;;11.20;100.00
49030;BME280;43337;52.070;4.508;2023-05-08T03:03:16;102253.75;;;11.34;100.00
49030;BME280;43337;52.070;4.508;2023-05-08T03:05:55;102251.22;;;11.31;100.00
49030;BME280;43337;52.070;4.508;2023-05-08T03:08:29;102200.81;;;11.06;100.00
49030;BME280;43337;52.070;4.508;2023-05-08T03:10:58;102251.22;;;11.29;100.00
49030;BME280;43337;52.070;4.508;2023-05-08T03:13:28;102215.66;;;11.10;100.00
49030;BME280;43337;52.070;4.508;2023-05-08T03:15:58;102248.72;;;11.24;100.00
49030;BME280;43337;52.070;4.508;2023-05-08T03:18:32;102233.09;;;11.15;100.00
49030;BME280;43337;52.070;4.508;2023-05-08T03:20:59;102228.81;;;11.11;100.00
49030;BME280;43337;52.070;4.508;2023-05-08T03:23:27;102257.53;;;11.23;100.00
49030;BME280;43337;52.070;4.508;2023-05-08T03:25:54;102219.38;;;11.01;100.00
49030;BME280;43337;52.070;4.508;2023-05-08T03:28:22;102255.00;;;11.19;100.00
49030;BME280;43337;52.070;4.508;2023-05-08T03:30:49;102242.88;;;11.10;100.00
49030;BME280;43337;52.070;4.508;2023-05-08T03:33:15;102246.47;;;11.06;100.00
49030;BME280;43337;52.070;4.508;2023-05-08T03:35:42;102229.97;;;10.98;100.00
49030;BME280;43337;52.070;4.508;2023-05-08T03:38:09;102227.38;;;10.96;100.00
49030;BME280;43337;52.070;4.508;2023-05-08T03:40:35;102222.91;;;11.00;100.00
49030;BME280;43337;52.070;4.508;2023-05-08T03:43:07;102231.63;;;11.04;100.00
49030;BME280;43337;52.070;4.508;2023-05-08T03:45:37;102227.16;;;11.06;100.00
49030;BME280;43337;52.070;4.508;2023-05-08T03:48:05;102224.69;;;10.99;100.00
49030;BME280;43337;52.070;4.508;2023-05-08T03:50:31;102232.41;;;11.07;100.00
49030;BME280;43337;52.070;4.508;2023-05-08T03:52:58;102226.25;;;11.07;100.00
49030;BME280;43337;52.070;4.508;2023-05-08T03:55:24;102217.63;;;11.00;100.00
49030;BME280;43337;52.070;4.508;2023-05-08T03:57:56;102233.38;;;11.03;100.00
49030;BME280;43337;52.070;4.508;2023-05-08T04:00:42;102230.75;;;11.02;100.00
49030;BME280;43337;52.070;4.508;2023-05-08T04:03:31;102208.13;;;10.91;100.00
49030;BME280;43337;52.070;4.508;2023-05-08T04:06:15;102232.38;;;11.09;100.00
49030;BME280;43337;52.070;4.508;2023-05-08T04:08:47;102232.47;;;11.04;100.00
49030;BME280;43337;52.070;4.508;2023-05-08T04:11:25;102238.56;;;11.08;100.00
49030;BME280;43337;52.070;4.508;2023-05-08T04:13:56;102216.78;;;10.98;100.00
49030;BME280;43337;52.070;4.508;2023-05-08T04:16:31;102248.06;;;11.13;100.00
49030;BME280;43337;52.070;4.508;2023-05-08T04:19:01;102223.78;;;10.99;100.00
49030;BME280;43337;52.070;4.508;2023-05-08T04:21:32;102212.47;;;10.95;100.00
49030;BME280;43337;52.070;4.508;2023-05-08T04:24:01;102209.91;;;10.91;100.00
49030;BME280;43337;52.070;4.508;2023-05-08T04:26:28;102216.03;;;10.91;100.00
49030;BME280;43337;52.070;4.508;2023-05-08T04:28:55;102251.50;;;11.17;100.00
49030;BME280;43337;52.070;4.508;2023-05-08T04:31:22;102231.53;;;11.07;100.00
49030;BME280;43337;52.070;4.508;2023-05-08T04:33:48;102237.59;;;11.12;100.00
49030;BME280;43337;52.070;4.508;2023-05-08T04:36:14;102207.06;;;11.02;100.00
49030;BME280;43337;52.070;4.508;2023-05-08T04:38:40;102217.47;;;11.08;100.00
49030;BME280;43337;52.070;4.508;2023-05-08T04:41:06;102225.16;;;11.17;100.00
49030;BME280;43337;52.070;4.508;2023-05-08T04:43:33;102228.69;;;11.16;100.00
49030;BME280;43337;52.070;4.508;2023-05-08T04:45:58;102254.66;;;11.34;100.00
49030;BME280;43337;52.070;4.508;2023-05-08T04:48:23;102245.91;;;11.32;100.00
49030;BME280;43337;52.070;4.508;2023-05-08T04:50:50;102264.94;;;11.45;100.00
49030;BME280;43337;52.070;4.508;2023-05-08T04:53:15;102243.19;;;11.35;100.00
49030;BME280;43337;52.070;4.508;2023-05-08T04:55:41;102234.56;;;11.29;100.00
49030;BME280;43337;52.070;4.508;2023-05-08T04:58:09;102267.44;;;11.51;100.00
49030;BME280;43337;52.070;4.508;2023-05-08T05:00:35;102275.28;;;11.54;100.00
49030;BME280;43337;52.070;4.508;2023-05-08T05:03:00;102266.47;;;11.55;100.00
49030;BME280;43337;52.070;4.508;2023-05-08T05:05:26;102234.56;;;11.29;100.00
49030;BME280;43337;52.070;4.508;2023-05-08T05:07:51;102264.84;;;11.49;100.00
49030;BME280;43337;52.070;4.508;2023-05-08T05:10:17;102249.28;;;11.39;100.00
49030;BME280;43337;52.070;4.508;2023-05-08T05:12:42;102270.25;;;11.43;100.00
49030;BME280;43337;52.070;4.508;2023-05-08T05:15:08;102292.91;;;11.52;100.00
49030;BME280;43337;52.070;4.508;2023-05-08T05:17:34;102259.00;;;11.35;100.00
49030;BME280;43337;52.070;4.508;2023-05-08T05:19:59;102263.38;;;11.38;100.00
49030;BME280;43337;52.070;4.508;2023-05-08T05:22:24;102296.31;;;11.57;100.00
49030;BME280;43337;52.070;4.508;2023-05-08T05:24:50;102260.91;;;11.30;100.00
49030;BME280;43337;52.070;4.508;2023-05-08T05:27:15;102284.31;;;11.44;100.00
49030;BME280;43337;52.070;4.508;2023-05-08T05:29:42;102289.56;;;11.45;100.00
49030;BME280;43337;52.070;4.508;2023-05-08T05:32:07;102270.38;;;11.37;100.00
49030;BME280;43337;52.070;4.508;2023-05-08T05:34:35;102292.09;;;11.50;100.00
49030;BME280;43337;52.070;4.508;2023-05-08T05:37:00;102294.72;;;11.50;100.00
49030;BME280;43337;52.070;4.508;2023-05-08T05:39:26;102285.06;;;11.49;100.00
49030;BME280;43337;52.070;4.508;2023-05-08T05:41:52;102322.38;;;11.71;100.00
49030;BME280;43337;52.070;4.508;2023-05-08T05:44:17;102308.41;;;11.66;100.00
49030;BME280;43337;52.070;4.508;2023-05-08T05:46:42;102300.50;;;11.66;100.00
49030;BME280;43337;52.070;4.508;2023-05-08T05:49:08;102300.44;;;11.69;100.00
49030;BME280;43337;52.070;4.508;2023-05-08T05:51:33;102294.31;;;11.68;100.00
49030;BME280;43337;52.070;4.508;2023-05-08T05:53:58;102319.53;;;11.80;100.00
49030;BME280;43337;52.070;4.508;2023-05-08T05:56:24;102333.31;;;11.93;100.00
49030;BME280;43337;52.070;4.508;2023-05-08T05:58:50;102313.19;;;11.89;100.00
49030;BME280;43337;52.070;4.508;2023-05-08T06:01:16;102302.69;;;11.86;100.00
49030;BME280;43337;52.070;4.508;2023-05-08T06:03:41;102312.28;;;11.90;100.00
49030;BME280;43337;52.070;4.508;2023-05-08T06:06:07;102331.22;;;12.07;100.00
49030;BME280;43337;52.070;4.508;2023-05-08T06:08:32;102305.03;;;11.98;100.00
49030;BME280;43337;52.070;4.508;2023-05-08T06:10:58;102327.44;;;12.17;100.00
49030;BME280;43337;52.070;4.508;2023-05-08T06:13:23;102331.66;;;12.25;100.00
49030;BME280;43337;52.070;4.508;2023-05-08T06:15:49;102330.66;;;12.29;100.00
49030;BME280;43337;52.070;4.508;2023-05-08T06:18:15;102309.72;;;12.23;100.00
49030;BME280;43337;52.070;4.508;2023-05-08T06:20:40;102343.47;;;12.44;100.00
49030;BME280;43337;52.070;4.508;2023-05-08T06:23:06;102338.91;;;12.49;100.00
49030;BME280;43337;52.070;4.508;2023-05-08T06:25:31;102334.34;;;12.56;100.00
49030;BME280;43337;52.070;4.508;2023-05-08T06:27:57;102318.72;;;12.48;100.00
49030;BME280;43337;52.070;4.508;2023-05-08T06:30:23;102332.28;;;12.68;100.00
49030;BME280;43337;52.070;4.508;2023-05-08T06:32:49;102302.63;;;12.57;100.00
49030;BME280;43337;52.070;4.508;2023-05-08T06:35:14;102292.06;;;12.57;100.00
49030;BME280;43337;52.070;4.508;2023-05-08T06:37:44;102313.56;;;12.76;100.00
49030;BME280;43337;52.070;4.508;2023-05-08T06:40:10;102305.53;;;12.79;100.00
49030;BME280;43337;52.070;4.508;2023-05-08T06:42:36;102327.84;;;13.00;100.00
49030;BME280;43337;52.070;4.508;2023-05-08T06:45:02;102323.50;;;12.98;100.00
49030;BME280;43337;52.070;4.508;2023-05-08T06:47:27;102315.41;;;13.04;100.00
49030;BME280;43337;52.070;4.508;2023-05-08T06:49:52;102337.78;;;13.22;100.00
49030;BME280;43337;52.070;4.508;2023-05-08T06:52:18;102327.16;;;13.25;100.00
49030;BME280;43337;52.070;4.508;2023-05-08T06:54:45;102310.53;;;13.19;100.00
49030;BME280;43337;52.070;4.508;2023-05-08T06:57:10;102286.75;;;13.18;100.00
49030;BME280;43337;52.070;4.508;2023-05-08T06:59:37;102317.81;;;13.42;100.00
49030;BME280;43337;52.070;4.508;2023-05-08T07:02:03;102301.19;;;13.37;100.00
49030;BME280;43337;52.070;4.508;2023-05-08T07:04:28;102300.25;;;13.40;100.00
49030;BME280;43337;52.070;4.508;2023-05-08T07:06:54;102326.81;;;13.65;100.00
49030;BME280;43337;52.070;4.508;2023-05-08T07:09:19;102318.66;;;13.71;100.00
49030;BME280;43337;52.070;4.508;2023-05-08T07:11:44;102318.50;;;13.76;100.00
49030;BME280;43337;52.070;4.508;2023-05-08T07:17:32;102306.56;;;13.90;100.00
49030;BME280;43337;52.070;4.508;2023-05-08T07:20:01;102310.47;;;14.07;100.00
49030;BME280;43337;52.070;4.508;2023-05-08T07:22:27;102305.81;;;14.13;100.00
49030;BME280;43337;52.070;4.508;2023-05-08T07:24:53;102294.31;;;14.14;100.00
49030;BME280;43337;52.070;4.508;2023-05-08T07:27:18;102309.69;;;14.30;100.00
49030;BME280;43337;52.070;4.508;2023-05-08T07:29:44;102297.44;;;14.26;100.00
49030;BME280;43337;52.070;4.508;2023-05-08T07:32:09;102306.63;;;14.40;100.00
49030;BME280;43337;52.070;4.508;2023-05-08T07:34:35;102310.91;;;14.45;100.00
49030;BME280;43337;52.070;4.508;2023-05-08T07:37:00;102304.66;;;14.47;100.00
49030;BME280;43337;52.070;4.508;2023-05-08T07:39:26;102309.72;;;14.55;100.00
49030;BME280;43337;52.070;4.508;2023-05-08T07:41:52;102288.69;;;14.49;100.00
49030;BME280;43337;52.070;4.508;2023-05-08T07:44:18;102311.81;;;14.70;100.00
49030;BME280;43337;52.070;4.508;2023-05-08T07:46:44;102301.03;;;14.75;100.00
49030;BME280;43337;52.070;4.508;2023-05-08T07:49:09;102314.00;;;14.82;100.00
49030;BME280;43337;52.070;4.508;2023-05-08T07:51:35;102292.16;;;14.76;100.00
49030;BME280;43337;52.070;4.508;2023-05-08T07:54:00;102311.78;;;14.95;100.00
49030;BME280;43337;52.070;4.508;2023-05-08T07:56:26;102292.81;;;14.82;100.00
49030;BME280;43337;52.070;4.508;2023-05-08T07:58:52;102315.03;;;15.03;100.00
49030;BME280;43337;52.070;4.508;2023-05-08T08:01:18;102321.78;;;15.10;100.00
49030;BME280;43337;52.070;4.508;2023-05-08T08:03:46;102297.41;;;15.01;100.00
49030;BME280;43337;52.070;4.508;2023-05-08T08:06:12;102303.38;;;15.07;100.00
49030;BME280;43337;52.070;4.508;2023-05-08T08:08:37;102323.09;;;15.24;100.00
49030;BME280;43337;52.070;4.508;2023-05-08T08:11:04;102309.00;;;15.22;100.00
49030;BME280;43337;52.070;4.508;2023-05-08T08:13:29;102293.25;;;15.17;100.00
49030;BME280;43337;52.070;4.508;2023-05-08T08:15:55;102310.16;;;15.38;100.00
49030;BME280;43337;52.070;4.508;2023-05-08T08:18:22;102300.31;;;15.40;100.00
49030;BME280;43337;52.070;4.508;2023-05-08T08:20:47;102298.31;;;15.47;100.00
49030;BME280;43337;52.070;4.508;2023-05-08T08:23:13;102291.00;;;15.52;100.00
49030;BME280;43337;52.070;4.508;2023-05-08T08:25:38;102286.41;;;15.57;100.00
49030;BME280;43337;52.070;4.508;2023-05-08T08:28:04;102313.81;;;15.79;100.00
49030;BME280;43337;52.070;4.508;2023-05-08T08:30:30;102300.19;;;15.89;100.00
49030;BME280;43337;52.070;4.508;2023-05-08T08:32:56;102275.53;;;15.85;100.00
49030;BME280;43337;52.070;4.508;2023-05-08T08:35:22;102305.53;;;16.09;100.00
49030;BME280;43337;52.070;4.508;2023-05-08T08:37:56;102285.13;;;16.09;100.00
49030;BME280;43337;52.070;4.508;2023-05-08T08:40:22;102292.56;;;16.22;100.00
49030;BME280;43337;52.070;4.508;2023-05-08T08:42:47;102268.66;;;16.22;100.00
49030;BME280;43337;52.070;4.508;2023-05-08T08:45:13;102304.69;;;16.49;100.00
49030;BME280;43337;52.070;4.508;2023-05-08T08:47:39;102313.75;;;16.64;100.00
49030;BME280;43337;52.070;4.508;2023-05-08T08:50:08;102308.81;;;16.77;100.00
49030;BME280;43337;52.070;4.508;2023-05-08T08:52:47;102304.72;;;16.89;100.00
49030;BME280;43337;52.070;4.508;2023-05-08T08:55:17;102303.66;;;16.93;100.00
49030;BME280;43337;52.070;4.508;2023-05-08T09:00:29;102285.31;;;16.87;100.00
49030;BME280;43337;52.070;4.508;2023-05-08T09:02:56;102293.75;;;16.96;100.00
49030;BME280;43337;52.070;4.508;2023-05-08T09:05:22;102274.13;;;16.99;100.00
49030;BME280;43337;52.070;4.508;2023-05-08T09:07:48;102299.81;;;17.19;100.00
49030;BME280;43337;52.070;4.508;2023-05-08T09:10:15;102289.56;;;17.28;100.00
49030;BME280;43337;52.070;4.508;2023-05-08T09:12:41;102274.09;;;17.37;100.00
49030;BME280;43337;52.070;4.508;2023-05-08T09:15:07;102268.69;;;17.57;100.00
49030;BME280;43337;52.070;4.508;2023-05-08T09:17:32;102281.81;;;17.79;100.00
49030;BME280;43337;52.070;4.508;2023-05-08T09:19:58;102274.63;;;17.81;100.00
49030;BME280;43337;52.070;4.508;2023-05-08T09:22:24;102288.31;;;17.91;100.00
49030;BME280;43337;52.070;4.508;2023-05-08T09:24:55;102298.78;;;17.95;100.00
49030;BME280;43337;52.070;4.508;2023-05-08T09:27:22;102294.31;;;17.96;100.00
49030;BME280;43337;52.070;4.508;2023-05-08T09:30:14;102297.28;;;17.90;100.00
49030;BME280;43337;52.070;4.508;2023-05-08T09:32:42;102295.78;;;17.84;100.00
49030;BME280;43337;52.070;4.508;2023-05-08T09:35:09;102289.03;;;17.77;100.00
49030;BME280;43337;52.070;4.508;2023-05-08T09:37:39;102270.25;;;17.61;100.00
49030;BME280;43337;52.070;4.508;2023-05-08T09:40:16;102289.53;;;17.66;100.00
49030;BME280;43337;52.070;4.508;2023-05-08T09:42:41;102278.47;;;17.56;100.00
49030;BME280;43337;52.070;4.508;2023-05-08T09:45:07;102292.47;;;17.60;100.00
49030;BME280;43337;52.070;4.508;2023-05-08T09:47:34;102303.78;;;17.65;100.00
49030;BME280;43337;52.070;4.508;2023-05-08T09:50:05;102300.31;;;17.63;100.00
49030;BME280;43337;52.070;4.508;2023-05-08T09:52:32;102303.78;;;17.65;100.00
49030;BME280;43337;52.070;4.508;2023-05-08T09:55:02;102286.78;;;17.68;100.00
49030;BME280;43337;52.070;4.508;2023-05-08T09:57:29;102288.81;;;17.81;100.00
49030;BME280;43337;52.070;4.508;2023-05-08T10:02:31;102298.06;;;18.09;100.00
49030;BME280;43337;52.070;4.508;2023-05-08T10:04:57;102297.53;;;18.20;100.00
49030;BME280;43337;52.070;4.508;2023-05-08T10:07:27;102299.72;;;18.29;100.00
49030;BME280;43337;52.070;4.508;2023-05-08T10:10:00;102266.16;;;18.25;100.00
49030;BME280;43337;52.070;4.508;2023-05-08T10:12:26;102279.72;;;18.38;100.00
49030;BME280;43337;52.070;4.508;2023-05-08T10:14:52;102289.81;;;18.48;100.00
49030;BME280;43337;52.070;4.508;2023-05-08T10:17:23;102275.09;;;18.41;100.00
49030;BME280;43337;52.070;4.508;2023-05-08T10:19:54;102272.63;;;18.54;100.00
49030;BME280;43337;52.070;4.508;2023-05-08T10:22:23;102298.19;;;18.75;100.00
49030;BME280;43337;52.070;4.508;2023-05-08T10:24:52;102286.50;;;18.78;100.00
49030;BME280;43337;52.070;4.508;2023-05-08T10:27:29;102285.91;;;18.89;100.00
49030;BME280;43337;52.070;4.508;2023-05-08T10:30:00;102278.50;;;18.94;100.00
49030;BME280;43337;52.070;4.508;2023-05-08T10:32:27;102284.38;;;19.00;100.00
49030;BME280;43337;52.070;4.508;2023-05-08T10:34:55;102291.97;;;19.08;100.00
49030;BME280;43337;52.070;4.508;2023-05-08T10:37:23;102265.69;;;19.00;100.00
49030;BME280;43337;52.070;4.508;2023-05-08T10:39:48;102287.41;;;19.10;100.00
49030;BME280;43337;52.070;4.508;2023-05-08T10:42:14;102290.00;;;19.12;100.00
49030;BME280;43337;52.070;4.508;2023-05-08T10:44:40;102273.28;;;19.08;100.00
49030;BME280;43337;52.070;4.508;2023-05-08T10:50:55;102285.63;;;19.11;100.00
49030;BME280;43337;52.070;4.508;2023-05-08T10:55:32;102277.19;;;19.34;100.00
49030;BME280;43337;52.070;4.508;2023-05-08T10:58:15;102263.81;;;19.34;100.00
49030;BME280;43337;52.070;4.508;2023-05-08T11:03:26;102261.56;;;19.42;100.00
49030;BME280;43337;52.070;4.508;2023-05-08T11:05:52;102264.50;;;19.38;100.00
49030;BME280;43337;52.070;4.508;2023-05-08T11:08:19;102257.97;;;19.27;100.00
49030;BME280;43337;52.070;4.508;2023-05-08T11:11:19;102260.53;;;19.29;100.00
49030;BME280;43337;52.070;4.508;2023-05-08T11:14:13;102250.91;;;19.26;100.00
49030;BME280;43337;52.070;4.508;2023-05-08T11:19:19;102256.06;;;19.45;100.00
49030;BME280;43337;52.070;4.508;2023-05-08T11:24:36;102258.59;;;19.79;100.00
49030;BME280;43337;52.070;4.508;2023-05-08T11:27:02;102254.56;;;19.87;100.00
49030;BME280;43337;52.070;4.508;2023-05-08T11:29:28;102237.91;;;19.82;100.00
49030;BME280;43337;52.070;4.508;2023-05-08T11:31:53;102228.19;;;19.81;100.00
49030;BME280;43337;52.070;4.508;2023-05-08T11:37:23;102245.84;;;19.84;100.00
49030;BME280;43337;52.070;4.508;2023-05-08T11:39:49;102257.22;;;19.87;100.00
49030;BME280;43337;52.070;4.508;2023-05-08T11:45:12;102250.28;;;19.99;100.00
49030;BME280;43337;52.070;4.508;2023-05-08T11:47:40;102244.47;;;20.07;100.00
49030;BME280;43337;52.070;4.508;2023-05-08T11:50:10;102248.22;;;20.18;100.00
49030;BME280;43337;52.070;4.508;2023-05-08T11:52:37;102244.88;;;20.29;100.00
49030;BME280;43337;52.070;4.508;2023-05-08T11:55:04;102242.13;;;20.31;100.00
49030;BME280;43337;52.070;4.508;2023-05-08T11:57:30;102226.16;;;20.15;100.00
49030;BME280;43337;52.070;4.508;2023-05-08T11:59:56;102250.16;;;20.31;100.00
49030;BME280;43337;52.070;4.508;2023-05-08T12:02:38;102234.19;;;20.29;100.00
49030;BME280;43337;52.070;4.508;2023-05-08T12:05:05;102246.41;;;20.33;100.00
49030;BME280;43337;52.070;4.508;2023-05-08T12:07:31;102229.50;;;20.18;100.00
49030;BME280;43337;52.070;4.508;2023-05-08T12:09:56;102231.91;;;20.23;100.00
49030;BME280;43337;52.070;4.508;2023-05-08T12:12:35;102232.94;;;20.20;100.00
49030;BME280;43337;52.070;4.508;2023-05-08T12:15:05;102235.72;;;20.19;100.00
49030;BME280;43337;52.070;4.508;2023-05-08T12:17:31;102228.91;;;20.13;100.00
49030;BME280;43337;52.070;4.508;2023-05-08T12:19:56;102233.19;;;20.02;100.00
49030;BME280;43337;52.070;4.508;2023-05-08T12:22:33;102233.78;;;20.07;100.00
49030;BME280;43337;52.070;4.508;2023-05-08T12:24:58;102236.84;;;20.15;100.00
49030;BME280;43337;52.070;4.508;2023-05-08T12:27:23;102231.50;;;20.29;100.00
49030;BME280;43337;52.070;4.508;2023-05-08T12:29:49;102214.31;;;20.33;100.00
49030;BME280;43337;52.070;4.508;2023-05-08T12:32:14;102233.00;;;20.49;100.00
49030;BME280;43337;52.070;4.508;2023-05-08T12:34:40;102230.38;;;20.47;100.00
49030;BME280;43337;52.070;4.508;2023-05-08T12:37:05;102228.50;;;20.50;100.00
49030;BME280;43337;52.070;4.508;2023-05-08T12:39:34;102220.53;;;20.48;100.00
49030;BME280;43337;52.070;4.508;2023-05-08T12:42:01;102235.41;;;20.54;100.00
49030;BME280;43337;52.070;4.508;2023-05-08T12:44:26;102209.38;;;20.41;100.00
49030;BME280;43337;52.070;4.508;2023-05-08T12:46:56;102226.97;;;20.60;100.00
49030;BME280;43337;52.070;4.508;2023-05-08T12:49:29;102224.28;;;20.60;100.00
49030;BME280;43337;52.070;4.508;2023-05-08T12:52:02;102226.47;;;20.67;100.00
49030;BME280;43337;52.070;4.508;2023-05-08T12:54:38;102225.44;;;20.70;100.00
49030;BME280;43337;52.070;4.508;2023-05-08T12:57:11;102212.16;;;20.54;100.00
49030;BME280;43337;52.070;4.508;2023-05-08T12:59:36;102222.09;;;20.52;100.00
49030;BME280;43337;52.070;4.508;2023-05-08T13:02:02;102197.31;;;20.48;100.00
49030;BME280;43337;52.070;4.508;2023-05-08T13:04:28;102218.28;;;20.70;100.00
49030;BME280;43337;52.070;4.508;2023-05-08T13:06:55;102201.09;;;20.60;100.00
49030;BME280;43337;52.070;4.508;2023-05-08T13:09:20;102206.03;;;20.52;100.00
49030;BME280;43337;52.070;4.508;2023-05-08T13:11:47;102200.56;;;20.39;100.00
49030;BME280;43337;52.070;4.508;2023-05-08T13:14:12;102212.13;;;20.40;100.00
49030;BME280;43337;52.070;4.508;2023-05-08T13:16:44;102209.94;;;20.46;100.00
49030;BME280;43337;52.070;4.508;2023-05-08T13:19:12;102202.63;;;20.50;100.00
49030;BME280;43337;52.070;4.508;2023-05-08T13:21:38;102214.66;;;20.57;100.00
49030;BME280;43337;52.070;4.508;2023-05-08T13:24:04;102209.94;;;20.46;100.00
49030;BME280;43337;52.070;4.508;2023-05-08T13:26:29;102197.72;;;20.42;100.00
49030;BME280;43337;52.070;4.508;2023-05-08T13:28:55;102197.03;;;20.39;100.00
49030;BME280;43337;52.070;4.508;2023-05-08T13:31:20;102215.03;;;20.51;100.00
49030;BME280;43337;52.070;4.508;2023-05-08T13:33:45;102214.63;;;20.43;100.00